Flight Track Log - Related Links

Times and Time Zones

All times are in EDT time to prevent confusion due to time zone crossing. See the EJA831 flight status page for this flight to view local times or setup timezone preferences in your user account.

Time Position Orientation Groundspeed Altitude Reporting Facility
EDT Latitude Longitude Course Direction KTS MPH feet Rate Location/Type
Fri 11:20:27 AM 35.6072 -77.3242 350° North 330 380 4,300  Level Washington Center
Fri 11:21:25 AM 35.6739 -77.3383 350° North 176 203 7,200 3,176 Climbing Washington Center
Fri 11:22:26 AM 35.7356 -77.4064 318° Northwest 192 221 10,600 3,197 Climbing Washington Center
Fri 11:23:27 AM 35.7969 -77.4819 315° West 250 288 13,700 3,227 Climbing Washington Center
Fri 11:24:25 AM 35.8542 -77.5525 315° West 290 334 17,000 2,975 Climbing Washington Center
Fri 11:25:26 AM 35.9156 -77.6283 315° West 303 349 19,600 1,475 Climbing Washington Center
Fri 11:26:27 AM 35.9828 -77.7147 314° West 323 372 20,000 198 Climbing Washington Center
Fri 11:27:27 AM 36.0414 -77.8217 304° West 353 406 20,000 1,322 Level Washington Center
Fri 11:28:25 AM 36.0958 -77.9208 304° West 365 420 22,600 2,218 Climbing Washington Center
Fri 11:29:26 AM 36.1483 -78.0150 305° West 353 406 24,400 2,016 Climbing Washington Center
Fri 11:30:27 AM 36.2006 -78.1119 304° West 347 399 26,700 2,168 Climbing Washington Center
Fri 11:31:25 AM 36.2486 -78.2061 302° West 341 392 28,700 2,017 Climbing Washington Center
Fri 11:32:26 AM 36.3006 -78.3033 304° West 336 387 30,700 1,636 Climbing Washington Center
Fri 11:33:26 AM 36.3525 -78.4031 303° West 336 387 32,000 650 Climbing Washington Center
Fri 11:34:26 AM 36.4106 -78.5083 304° West 355 409 32,000  Level Washington Center
Fri 11:35:27 AM 36.4722 -78.6269 303° West 384 442 32,000  Level Washington Center
Fri 11:36:25 AM 36.5339 -78.7431 303° West 403 464 32,000  Level Washington Center
Fri 11:37:26 AM 36.5956 -78.8619 303° West 409 471 32,000 149 Level Washington Center
Fri 11:38:26 AM 36.6569 -78.9811 303° West 414 476 32,300 942 Climbing Washington Center
Fri 11:39:27 AM 36.7008 -79.1178 292° West 398 458 33,900 857 Climbing Washington Center
Fri 11:40:25 AM 36.7306 -79.2461 286° West 393 452 34,000 50 Climbing Washington Center
Fri 11:41:26 AM 36.7619 -79.3772 287° West 388 447 34,000  Level Washington Center
Fri 11:42:27 AM 36.7972 -79.5061 289° West 388 447 34,000  Level Washington Center
Fri 11:43:25 AM 36.8247 -79.6267 286° West 395 455 34,000  Level Washington Center
Fri 11:44:26 AM 36.8575 -79.7608 287° West 400 460 34,000  Level Washington Center
Fri 11:46:04 AM 36.9133 -79.9967 287° West 411 473 34,000  Level Atlanta Center
Fri 11:47:04 AM 36.9450 -80.1300 287° West 411 473 34,000  Level Atlanta Center
Fri 11:48:04 AM 36.9761 -80.2611 287° West 411 473 34,000  Level Atlanta Center
Fri 11:49:04 AM 37.0072 -80.3947 286° West 411 473 34,000  Level Atlanta Center
Fri 11:50:04 AM 37.0356 -80.5106 287° West 405 466 34,000  Level Atlanta Center
Fri 11:51:04 AM 37.0706 -80.6442 288° West 399 459 34,000  Level Atlanta Center
Fri 11:53:11 AM 37.1914 -80.8894 302° West 391 450 34,000  Level Indianapolis Center
Fri 11:54:13 AM 37.2447 -80.9983 302° West 382 440 34,000  Level Indianapolis Center
Fri 11:55:14 AM 37.3078 -81.1247 302° West 372 428 34,000  Level Indianapolis Center
Fri 11:56:16 AM 37.3606 -81.2358 301° West 373 429 34,000  Level Indianapolis Center
Fri 11:57:18 AM 37.4178 -81.3506 302° West 388 447 34,000 -726 Level Indianapolis Center
Fri 11:58:20 AM 37.4753 -81.4667 302° West 396 456 32,500 -1,756 Descending Indianapolis Center
Fri 11:59:21 AM 37.5386 -81.5986 301° West 401 461 30,400 -2,537 Descending Indianapolis Center
Fri 12:00:23 PM 37.5969 -81.7228 301° West 406 467 27,300 -3,048 Descending Indianapolis Center
Fri 12:01:25 PM 37.6656 -81.8664 301° West 412 474 24,100 -1,597 Descending Indianapolis Center
Fri 12:02:27 PM 37.7181 -81.9781 301° West 384 442 24,000 -48 Descending Indianapolis Center
Fri 12:03:29 PM 37.7711 -82.0867 302° West 371 427 24,000  Level Indianapolis Center
Fri 12:04:30 PM 37.8244 -82.2006 301° West 371 427 24,000  Level Indianapolis Center
Fri 12:05:32 PM 37.8781 -82.3164 300° West 376 433 24,000  Level Indianapolis Center
Fri 12:06:34 PM 37.9344 -82.4350 301° West 385 443 24,000 -1,210 Level Indianapolis Center
Fri 12:07:36 PM 37.9989 -82.5733 301° West 390 449 21,500 -1,935 Descending Indianapolis Center
Fri 12:08:38 PM 38.0508 -82.6856 300° West 379 436 20,000 -1,220 Descending Indianapolis Center
Fri 12:09:39 PM 38.1006 -82.7939 300° West 364 419 19,000 -1,415 Descending Indianapolis Center
Fri 12:10:41 PM 38.1508 -82.9039 300° West 362 417 17,100 -1,839 Descending Indianapolis Center
Fri 12:11:43 PM 38.2003 -83.0103 301° West 356 410 15,200 -1,790 Descending Indianapolis Center
Fri 12:12:45 PM 38.2503 -83.1197 300° West 356 410 13,400 -1,512 Descending Indianapolis Center
Fri 12:13:46 PM 38.3081 -83.2461 300° West 356 410 12,100 -732 Descending Indianapolis Center
Fri 12:14:48 PM 38.3561 -83.3533 300° West 355 409 11,900 -677 Descending Indianapolis Center
Fri 12:15:50 PM 38.4025 -83.4581 300° West 346 398 10,700 -1,016 Descending Indianapolis Center
Fri 12:16:52 PM 38.4425 -83.5464 300° West 303 349 9,800 -823 Descending Indianapolis Center
Fri 12:17:54 PM 38.4814 -83.6297 301° West 283 326 9,000 -829 Descending Indianapolis Center
Fri 12:18:55 PM 38.5194 -83.7150 300° West 278 320 8,100 -878 Descending Indianapolis Center
Fri 12:19:57 PM 38.5639 -83.8117 300° West 274 315 7,200 -823 Descending Indianapolis Center
Fri 12:20:59 PM 38.5997 -83.8958 299° West 274 315 6,400 -581 Descending Indianapolis Center
Fri 12:22:01 PM 38.6558 -83.9675 315° West 275 316 6,000 -194 Descending Indianapolis Center
Fri 12:23:03 PM 38.7236 -84.0161 331° Northwest 281 323 6,000 -581 Level Indianapolis Center
Fri 12:24:05 PM 38.7969 -84.0483 341° North 281 323 4,800 -976 Descending Indianapolis Center
Fri 12:25:06 PM 38.8592 -84.0781 340° North 243 280 4,000 -390 Descending Indianapolis Center
Fri 12:26:08 PM 38.9161 -84.1067 339° North 227 261 4,000  Level Indianapolis Center
Fri 12:27:10 PM 38.9756 -84.1350 340° North 225 259 4,000  Level Indianapolis Center
Fri 12:28:12 PM 39.0350 -84.1631 340° North 225 259 4,000 -484 Level Indianapolis Center
Fri 12:29:14 PM 39.1072 -84.1997 338° Northwest 227 261 3,000 -488 Descending Indianapolis Center
Fri 12:30:15 PM 39.1517 -84.2344 329° Northwest 205 236 3,000  Level Indianapolis Center
Fri 12:31:17 PM 39.1931 -84.2764 322° Northwest 196 226 3,000 -48 Level Indianapolis Center
Fri 12:32:19 PM 39.2139 -84.3367 294° West 182 209 2,900 -481 Descending Indianapolis Center
Fri 12:33:59 PM 39.1667 -84.3833 217° Southwest 107 123 1,700 -638 Descending Cincinnati TRACON
Fri 12:34:59 PM 39.1500 -84.3833 180° South 104 120 1,200 -500 Descending Cincinnati TRACON

Login

Don't have an account? Register now (free) for customized features, flight alerts, and more!